Wetterstation Camping Dickerscheid
Wetterdaten: aktuell Donnerstag, 21.06.2018 16:51
Datum Zeit Temp. Innen Temp. Auen Feuchte I. Feuchte A. Luftdruck Regen Wind W-Richtung W-Richtung Taupunkt Windchill Windben
21.06.2018 16:51 23,6 C 13,3 C 36 % 58 % 1016,4 hPa 0,0 mm 9,0 km/h (2 Bft) W-NW 285 5,2 C 13,3 C 14,5 km/h (3 Bft)
21.06.2018 15:51 23,6 C 14,2 C 36 % 58 % 1015,5 hPa 0,0 mm 15,1 km/h (3 Bft) N-NO 17 6,1 C 14,2 C 27,4 km/h (4 Bft)
21.06.2018 14:51 23,7 C 14,7 C 39 % 64 % 1015,0 hPa 0,0 mm 7,4 km/h (2 Bft) W 271 8,0 C 14,7 C 9,7 km/h (2 Bft)
21.06.2018 13:51 23,6 C 14,1 C 43 % 68 % 1014,6 hPa 0,0 mm 7,0 km/h (2 Bft) W-NW 284 8,3 C 14,1 C 12,9 km/h (3 Bft)
21.06.2018 12:51 24,2 C 14,2 C 48 % 80 % 1013,9 hPa 0,0 mm 6,4 km/h (2 Bft) NW 315 10,8 C 14,2 C 12,9 km/h (3 Bft)
21.06.2018 11:51 24,1 C 13,7 C 50 % 87 % 1013,5 hPa 0,0 mm 9,1 km/h (2 Bft) NW 323 11,6 C 13,7 C 16,1 km/h (3 Bft)
21.06.2018 10:51 24,3 C 14,0 C 50 % 95 % 1012,5 hPa 0,2 mm 5,1 km/h (1 Bft) W-NW 303 13,2 C 14,0 C 9,7 km/h (2 Bft)
21.06.2018 09:51 24,2 C 14,1 C 51 % 94 % 1011,8 hPa 0,2 mm 2,9 km/h (1 Bft) W-NW 301 13,1 C 14,1 C 8,0 km/h (2 Bft)
21.06.2018 08:51 24,2 C 15,1 C 50 % 90 % 1010,9 hPa 0,0 mm 5,0 km/h (1 Bft) NW 323 13,5 C 15,1 C 9,7 km/h (2 Bft)
21.06.2018 07:51 24,4 C 15,7 C 50 % 92 % 1010,8 hPa 0,0 mm 0,0 km/h (0 Bft) O 88 14,4 C 15,7 C 0,0 km/h (0 Bft)
21.06.2018 06:51 24,1 C 15,0 C 50 % 91 % 1010,7 hPa 0,0 mm 0,0 km/h (0 Bft) O 88 13,5 C 15,0 C 0,0 km/h (0 Bft)
21.06.2018 05:51 24,0 C 14,4 C 50 % 91 % 1010,9 hPa 0,0 mm 0,0 km/h (0 Bft) O 88 12,9 C 14,4 C 0,0 km/h (0 Bft)
21.06.2018 04:51 24,1 C 14,3 C 50 % 91 % 1011,1 hPa 0,0 mm 0,0 km/h (0 Bft) O 88 12,8 C 14,3 C 0,0 km/h (0 Bft)
21.06.2018 03:51 24,1 C 15,1 C 50 % 90 % 1011,8 hPa 0,0 mm 0,0 km/h (0 Bft) O 88 13,5 C 15,1 C 0,0 km/h (0 Bft)
21.06.2018 02:51 24,4 C 15,3 C 50 % 89 % 1012,7 hPa 0,0 mm 0,0 km/h (0 Bft) O 88 13,5 C 15,3 C 0,0 km/h (0 Bft)
21.06.2018 01:51 24,2 C 16,2 C 50 % 86 % 1012,8 hPa 0,0 mm 0,0 km/h (0 Bft) O 88 13,9 C 16,2 C 0,0 km/h (0 Bft)
21.06.2018 00:51 24,5 C 17,2 C 50 % 82 % 1013,3 hPa 0,0 mm 0,0 km/h (0 Bft) O 88 14,1 C 17,2 C 0,0 km/h (0 Bft)
20.06.2018 23:51 24,4 C 18,3 C 50 % 81 % 1013,8 hPa 0,0 mm 0,0 km/h (0 Bft) O 88 15,0 C 18,3 C 0,0 km/h (0 Bft)
20.06.2018 22:51 24,6 C 19,1 C 50 % 77 % 1014,1 hPa 0,0 mm 0,0 km/h (0 Bft) O 88 15,0 C 19,1 C 0,0 km/h (0 Bft)
20.06.2018 21:51 24,7 C 20,4 C 50 % 71 % 1013,7 hPa 0,0 mm 0,0 km/h (0 Bft) O 88 15,0 C 20,4 C 0,0 km/h (0 Bft)
20.06.2018 20:51 24,8 C 22,1 C 50 % 69 % 1013,6 hPa 0,0 mm 0,0 km/h (0 Bft) NW 308 16,1 C 22,1 C 0,0 km/h (0 Bft)
20.06.2018 19:51 24,8 C 23,6 C 49 % 62 % 1014,0 hPa 0,0 mm 0,0 km/h (0 Bft) W 262 15,9 C 23,6 C 0,0 km/h (0 Bft)
20.06.2018 18:51 24,8 C 23,6 C 48 % 57 % 1014,5 hPa 0,0 mm 1,0 km/h (0 Bft) NW 319 14,6 C 23,6 C 3,2 km/h (1 Bft)
20.06.2018 17:51 24,6 C 24,2 C 48 % 55 % 1014,9 hPa 0,0 mm 0,3 km/h (0 Bft) W 263 14,6 C 24,2 C 1,6 km/h (1 Bft)
20.06.2018 17:00 24,5 C 24,4 C 48 % 52 % 1015,4 hPa 0,0 mm 1,3 km/h (1 Bft) N 5 13,9 C 24,4 C 4,8 km/h (1 Bft)
_ Min-Zeit 13:24 16:44 15:48 17:00 06:49 - 17:42 - - 16:39 16:44 17:42
Minimum _ 23,1 C 13,3 C 36 % 52 % 1010,6 hPa - 0,0 km/h (0 Bft) - - 5,1 C 13,3 C 0,0 km/h (0 Bft)
_ Max-Zeit 21:27 17:00 08:52 10:27 16:48 09:45 15:37 - - 20:47 17:00 13:37
Maximum _ 25,3 C 24,4 C 51 % 96 % 1016,4 hPa 0,2 mm 18,5 km/h
W-NW (3 Bft)
- - 16,2 C 24,4 C 30,6 km/h
W-SW (5 Bft)
Durchschnitt _ 24,3 C 17,5 C 48 % 76 % 1013,3 hPa #0,4 mm 2,6 km/h (1 Bft) NW - 12,9 C 17,5 C 5,1 km/h (1 Bft)